TimeCST,TemperatureF,Dew PointF,Humidity,Sea Level PressureIn,VisibilityMPH,Wind Direction,Wind SpeedMPH,Gust SpeedMPH,PrecipitationIn,Events,Conditions,WindDirDegrees,DateUTC
12:00 AM,8,4,77,30.31,12,SSE,3.5,,,Snow,Light Snow,150,2013-02-22 06:00:00
12:00 AM,8.6,5.0,85,30.31,12.0,South,4.6,-,N/A,Snow,Light Snow,170,2013-02-22 06:00:00
1:00 AM,8.6,5.0,85,30.29,15.0,SSE,3.5,-,N/A,Snow,Light Snow,160,2013-02-22 07:00:00
2:00 AM,3.2,-0.4,85,30.28,15.0,SSE,5.8,-,N/A,,Partly Cloudy,150,2013-02-22 08:00:00
3:00 AM,1.4,-4.0,78,30.27,15.0,SE,4.6,-,N/A,,Clear,130,2013-02-22 09:00:00
4:00 AM,-2.2,-5.8,85,30.26,15.0,East,3.5,-,N/A,,Partly Cloudy,90,2013-02-22 10:00:00
5:00 AM,-5.8,-9.4,84,30.25,15.0,East,3.5,-,N/A,,Partly Cloudy,90,2013-02-22 11:00:00
5:53 AM,-9999,-9999,N/A,-9999,15.0,East,3.5,-,N/A,,Unknown,90,2013-02-22 11:53:00
6:00 AM,-8,-15,60,30.24,15,East,3.5,,,Snow,Light Snow,90,2013-02-22 12:00:00
6:00 AM,-7.6,-14.8,71,30.24,15.0,East,3.5,-,N/A,Snow,Light Snow,90,2013-02-22 12:00:00
7:00 AM,-8,-15,60,30.24,15,East,3.5,,,Snow,Light Snow,90,2013-02-22 13:00:00
7:00 AM,-5.8,-11.2,77,30.23,15.0,East,4.6,-,N/A,,Mostly Cloudy,90,2013-02-22 13:00:00
10:34 AM,-9999,-9999,N/A,-9999,15.0,Calm,Calm,-,N/A,,Mostly Cloudy,0,2013-02-22 16:34:00
11:00 AM,10.4,5.0,79,30.15,15.0,ESE,3.5,-,N/A,,Mostly Cloudy,120,2013-02-22 17:00:00
12:00 PM,17,9,61,30.13,15,SE,9.2,,,,Partly Cloudy,140,2013-02-22 18:00:00
12:00 PM,17.6,8.6,68,30.13,15.0,SE,9.2,-,N/A,,Mostly Cloudy,130,2013-02-22 18:00:00
1:00 PM,21.2,8.6,58,30.09,15.0,South,10.4,-,N/A,,Partly Cloudy,170,2013-02-22 19:00:00
2:00 PM,23.0,8.6,54,30.06,15.0,South,11.5,-,N/A,,Mostly Cloudy,180,2013-02-22 20:00:00
3:00 PM,23.0,6.8,50,30.04,15.0,South,10.4,-,N/A,,Mostly Cloudy,170,2013-02-22 21:00:00
4:00 PM,21.2,6.8,54,30.03,15.0,South,9.2,-,N/A,,Mostly Cloudy,170,2013-02-22 22:00:00
5:00 PM,21.2,6.8,54,30.01,15.0,SSE,6.9,-,N/A,,Mostly Cloudy,160,2013-02-22 23:00:00
6:00 PM,20,6,41,30.01,15,SE,8.1,,,,Mostly Cloudy,140,2013-02-23 00:00:00
6:00 PM,21.2,6.8,54,30.01,15.0,SE,8.1,-,N/A,,Mostly Cloudy,140,2013-02-23 00:00:00
7:00 PM,19.4,6.8,58,30.00,15.0,SE,8.1,-,N/A,,Mostly Cloudy,130,2013-02-23 01:00:00
8:00 PM,15.8,6.8,68,30.01,15.0,SSE,5.8,-,N/A,,Mostly Cloudy,150,2013-02-23 02:00:00
9:00 PM,14.0,5.0,67,29.98,15.0,SE,4.6,-,N/A,,Scattered Clouds,130,2013-02-23 03:00:00
10:00 PM,12.2,5.0,73,29.97,15.0,SE,5.8,-,N/A,,Scattered Clouds,130,2013-02-23 04:00:00
11:00 PM,12.2,5.0,73,29.96,15.0,SE,4.6,-,N/A,,Scattered Clouds,140,2013-02-23 05:00:00